Norwegian Gem — C6VG8 — position and weather

sailwx.info

Track history (hours):
 
Tides and Currents Weather Stations Pressure Air Temp Water Temp Dewpoint Dewpoint Depression Visibility Wind Speed Wind Dir Waves Ship Positions

Norwegian Gem (Bahamas)

Last reported at 2019-Sep-07 00:19 UTC. Time now 2019-Sep-17 08:45 UTC.
Position N 42°34' W 070°29'.
Warning: this ship's position is 10 days out of date.

Length 294 m; draft 8.6 m.

Type: Ship. MMSI: 309951000.

Date/timePositionNaut miles runAvg speedWind from/ knotsBaromVisibWave heightAir tempDewpointWater temp
2019-Sep-07 00:19N 42°34' W 070°29'412.2
2019-Sep-07 00:00N 42°33' W 070°34'5 9.8
2019-Sep-06 23:28N 42°29' W 070°39'4 8.0
2019-Sep-06 23:00N 42°27' W 070°43'4 8.1
2019-Sep-06 22:30N 42°25' W 070°48'510.1
2019-Sep-06 22:00N 42°23' W 070°54'510.5
2019-Sep-06 21:30N 42°20' W 071°00'1 2.4
2019-Sep-06 21:00N 42°21' W 071°02'0 0.0
2019-Sep-06 20:30N 42°21' W 071°02'0 0.0
2019-Sep-06 20:00N 42°21' W 071°02'0 0.0
2019-Sep-06 19:29N 42°21' W 071°02'0 0.0
2019-Sep-06 18:59N 42°21' W 071°02'0 0.0
2019-Sep-06 18:17N 42°21' W 071°02'0 0.0
2019-Sep-06 17:59N 42°21' W 071°02'0 0.0
2019-Sep-06 17:26N 42°21' W 071°02'0 0.0
2019-Sep-06 16:58N 42°21' W 071°02'0 0.0
2019-Sep-06 16:28N 42°21' W 071°02'0 0.0
2019-Sep-06 15:58N 42°21' W 071°02'0 0.0
2019-Sep-06 15:28N 42°21' W 071°02'0 0.0
2019-Sep-06 15:01N 42°21' W 071°02'0 0.0
2019-Sep-06 14:30N 42°21' W 071°02'0 0.0
2019-Sep-06 13:54N 42°21' W 071°02'0 0.0
2019-Sep-06 13:30N 42°21' W 071°02'0 0.0
2019-Sep-06 13:00N 42°21' W 071°02'0 0.0
2019-Sep-06 12:26N 42°21' W 071°02'0 0.0
2019-Sep-06 11:59N 42°21' W 071°02'0 0.0
2019-Sep-06 11:29N 42°21' W 071°02'0 0.0
2019-Sep-06 11:00N 42°21' W 071°02'1 2.2
2019-Sep-06 10:30N 42°20' W 071°01'5 9.0
2019-Sep-06 10:00N 42°22' W 070°55'612.1
2019-Sep-06 09:31N 42°24' W 070°47'611.2
2019-Sep-06 09:01N 42°22' W 070°40'611.4
2019-Sep-06 08:28N 42°21' W 070°32'1711.5
2019-Sep-06 07:02N 42°20' W 070°09'111.2
2019-Sep-06 06:56N 42°20' W 070°08'710.5
2019-Sep-06 06:16N 42°17' W 069°59'511.0
2019-Sep-06 05:46N 42°12' W 069°56'511.5
2019-Sep-06 05:22N 42°08' W 069°53'511.0
2019-Sep-06 04:55N 42°04' W 069°50'511.2
2019-Sep-06 04:30N 41°60' W 069°47'611.1
2019-Sep-06 03:57N 41°54' W 069°43'710.9
2019-Sep-06 03:17N 41°48' W 069°39'1711.2
2019-Sep-06 01:47N 41°33' W 069°29'  
2019-Aug-30 21:59N 42°21' W 070°44'715.0
2019-Aug-30 21:30N 42°23' W 070°54'5 0.5
2019-Aug-30 10:34N 42°21' W 071°01'0 6.1
2019-Aug-30 10:30N 42°20' W 071°00'510.2
2019-Aug-30 10:01N 42°23' W 070°54'510.5
2019-Aug-30 09:31N 42°24' W 070°47'4 7.6
2019-Aug-30 08:56N 42°23' W 070°42'  
Track history (hours):
 
Tides and Currents Weather Stations Pressure Air Temp Water Temp Dewpoint Dewpoint Depression Visibility Wind Speed Wind Dir Waves Ship Positions

Norwegian Gem (Bahamas)

Last reported at 2019-Sep-07 00:19 UTC. Time now 2019-Sep-17 08:45 UTC.
Position N 42°34' W 070°29'.
Warning: this ship's position is 10 days out of date.

Length 294 m; draft 8.6 m.

Type: Ship. MMSI: 309951000.

Date/timePositionNaut miles runAvg speedWind from/ knotsBaromVisibWave heightAir tempDewpointWater temp
2019-Sep-07 00:19N 42°34' W 070°29'412.2
2019-Sep-07 00:00N 42°33' W 070°34'5 9.8
2019-Sep-06 23:28N 42°29' W 070°39'4 8.0
2019-Sep-06 23:00N 42°27' W 070°43'4 8.1
2019-Sep-06 22:30N 42°25' W 070°48'510.1
2019-Sep-06 22:00N 42°23' W 070°54'510.5
2019-Sep-06 21:30N 42°20' W 071°00'1 2.4
2019-Sep-06 21:00N 42°21' W 071°02'0 0.0
2019-Sep-06 20:30N 42°21' W 071°02'0 0.0
2019-Sep-06 20:00N 42°21' W 071°02'0 0.0
2019-Sep-06 19:29N 42°21' W 071°02'0 0.0
2019-Sep-06 18:59N 42°21' W 071°02'0 0.0
2019-Sep-06 18:17N 42°21' W 071°02'0 0.0
2019-Sep-06 17:59N 42°21' W 071°02'0 0.0
2019-Sep-06 17:26N 42°21' W 071°02'0 0.0
2019-Sep-06 16:58N 42°21' W 071°02'0 0.0
2019-Sep-06 16:28N 42°21' W 071°02'0 0.0
2019-Sep-06 15:58N 42°21' W 071°02'0 0.0
2019-Sep-06 15:28N 42°21' W 071°02'0 0.0
2019-Sep-06 15:01N 42°21' W 071°02'0 0.0
2019-Sep-06 14:30N 42°21' W 071°02'0 0.0
2019-Sep-06 13:54N 42°21' W 071°02'0 0.0
2019-Sep-06 13:30N 42°21' W 071°02'0 0.0
2019-Sep-06 13:00N 42°21' W 071°02'0 0.0
2019-Sep-06 12:26N 42°21' W 071°02'0 0.0
2019-Sep-06 11:59N 42°21' W 071°02'0 0.0
2019-Sep-06 11:29N 42°21' W 071°02'0 0.0
2019-Sep-06 11:00N 42°21' W 071°02'1 2.2
2019-Sep-06 10:30N 42°20' W 071°01'5 9.0
2019-Sep-06 10:00N 42°22' W 070°55'612.1
2019-Sep-06 09:31N 42°24' W 070°47'611.2
2019-Sep-06 09:01N 42°22' W 070°40'611.4
2019-Sep-06 08:28N 42°21' W 070°32'1711.5
2019-Sep-06 07:02N 42°20' W 070°09'111.2
2019-Sep-06 06:56N 42°20' W 070°08'710.5
2019-Sep-06 06:16N 42°17' W 069°59'511.0
2019-Sep-06 05:46N 42°12' W 069°56'511.5
2019-Sep-06 05:22N 42°08' W 069°53'511.0
2019-Sep-06 04:55N 42°04' W 069°50'511.2
2019-Sep-06 04:30N 41°60' W 069°47'611.1
2019-Sep-06 03:57N 41°54' W 069°43'710.9
2019-Sep-06 03:17N 41°48' W 069°39'1711.2
2019-Sep-06 01:47N 41°33' W 069°29'  
2019-Aug-30 21:59N 42°21' W 070°44'715.0
2019-Aug-30 21:30N 42°23' W 070°54'5 0.5
2019-Aug-30 10:34N 42°21' W 071°01'0 6.1
2019-Aug-30 10:30N 42°20' W 071°00'510.2
2019-Aug-30 10:01N 42°23' W 070°54'510.5
2019-Aug-30 09:31N 42°24' W 070°47'4 7.6
2019-Aug-30 08:56N 42°23' W 070°42'  

Dump ship's entire track history